sensor_id;sensor_type;location;lat;lon;timestamp;P1;durP1;ratioP1;P2;durP2;ratioP2
1975;SDS011;988;48.016;7.800;2023-01-13T00:00:19;19.50;;;18.00;;
1975;SDS011;988;48.016;7.800;2023-01-13T00:02:45;19.13;;;18.13;;
1975;SDS011;988;48.016;7.800;2023-01-13T00:05:11;17.63;;;16.63;;
1975;SDS011;988;48.016;7.800;2023-01-13T00:07:37;20.10;;;19.00;;
1975;SDS011;988;48.016;7.800;2023-01-13T00:10:04;19.27;;;18.27;;
1975;SDS011;988;48.016;7.800;2023-01-13T00:12:33;18.20;;;17.13;;
1975;SDS011;988;48.016;7.800;2023-01-13T00:14:59;18.80;;;17.70;;
1975;SDS011;988;48.016;7.800;2023-01-13T00:17:24;19.13;;;18.10;;
1975;SDS011;988;48.016;7.800;2023-01-13T00:19:50;17.70;;;16.70;;
1975;SDS011;988;48.016;7.800;2023-01-13T00:22:16;18.20;;;17.20;;
1975;SDS011;988;48.016;7.800;2023-01-13T00:24:41;18.70;;;17.67;;
1975;SDS011;988;48.016;7.800;2023-01-13T00:27:07;19.17;;;18.07;;
1975;SDS011;988;48.016;7.800;2023-01-13T00:29:32;20.70;;;18.80;;
1975;SDS011;988;48.016;7.800;2023-01-13T00:31:58;19.27;;;18.17;;
1975;SDS011;988;48.016;7.800;2023-01-13T00:34:24;19.13;;;17.83;;
1975;SDS011;988;48.016;7.800;2023-01-13T00:36:50;19.90;;;18.75;;
1975;SDS011;988;48.016;7.800;2023-01-13T00:39:15;19.50;;;18.30;;
1975;SDS011;988;48.016;7.800;2023-01-13T00:41:41;19.00;;;18.10;;
1975;SDS011;988;48.016;7.800;2023-01-13T00:44:25;20.10;;;18.88;;
1975;SDS011;988;48.016;7.800;2023-01-13T00:46:50;19.67;;;18.57;;
1975;SDS011;988;48.016;7.800;2023-01-13T00:49:16;18.90;;;17.90;;
1975;SDS011;988;48.016;7.800;2023-01-13T00:51:42;18.90;;;17.80;;
1975;SDS011;988;48.016;7.800;2023-01-13T00:54:07;19.00;;;18.00;;
1975;SDS011;988;48.016;7.800;2023-01-13T00:56:35;19.00;;;18.00;;
1975;SDS011;988;48.016;7.800;2023-01-13T00:59:00;17.98;;;17.05;;
1975;SDS011;988;48.016;7.800;2023-01-13T01:01:28;18.38;;;17.27;;
1975;SDS011;988;48.016;7.800;2023-01-13T01:03:53;19.03;;;17.73;;
1975;SDS011;988;48.016;7.800;2023-01-13T01:06:20;19.40;;;17.83;;
1975;SDS011;988;48.016;7.800;2023-01-13T01:08:47;18.80;;;17.70;;
1975;SDS011;988;48.016;7.800;2023-01-13T01:11:17;19.50;;;18.30;;
1975;SDS011;988;48.016;7.800;2023-01-13T01:13:45;20.00;;;18.58;;
1975;SDS011;988;48.016;7.800;2023-01-13T01:16:13;18.83;;;17.63;;
1975;SDS011;988;48.016;7.800;2023-01-13T01:18:41;20.30;;;18.90;;
1975;SDS011;988;48.016;7.800;2023-01-13T01:21:08;19.52;;;18.08;;
1975;SDS011;988;48.016;7.800;2023-01-13T01:23:34;19.90;;;18.48;;
1975;SDS011;988;48.016;7.800;2023-01-13T01:26:09;18.25;;;17.20;;
1975;SDS011;988;48.016;7.800;2023-01-13T01:28:37;19.40;;;18.30;;
1975;SDS011;988;48.016;7.800;2023-01-13T01:31:23;18.95;;;17.58;;
1975;SDS011;988;48.016;7.800;2023-01-13T01:33:53;19.50;;;17.90;;
1975;SDS011;988;48.016;7.800;2023-01-13T01:36:19;19.20;;;17.65;;
1975;SDS011;988;48.016;7.800;2023-01-13T01:38:46;19.15;;;17.95;;
1975;SDS011;988;48.016;7.800;2023-01-13T01:41:13;19.60;;;18.15;;
1975;SDS011;988;48.016;7.800;2023-01-13T01:43:54;20.00;;;18.52;;
1975;SDS011;988;48.016;7.800;2023-01-13T01:46:42;18.77;;;17.58;;
1975;SDS011;988;48.016;7.800;2023-01-13T01:49:21;18.98;;;17.88;;
1975;SDS011;988;48.016;7.800;2023-01-13T01:51:56;19.50;;;18.15;;
1975;SDS011;988;48.016;7.800;2023-01-13T01:54:40;19.25;;;17.90;;
1975;SDS011;988;48.016;7.800;2023-01-13T01:57:22;18.23;;;17.13;;
1975;SDS011;988;48.016;7.800;2023-01-13T01:59:53;18.80;;;17.80;;
1975;SDS011;988;48.016;7.800;2023-01-13T02:02:19;19.80;;;18.48;;
1975;SDS011;988;48.016;7.800;2023-01-13T02:04:47;19.65;;;18.15;;
1975;SDS011;988;48.016;7.800;2023-01-13T02:07:20;19.52;;;18.42;;
1975;SDS011;988;48.016;7.800;2023-01-13T02:09:49;18.52;;;17.52;;
1975;SDS011;988;48.016;7.800;2023-01-13T02:12:16;19.60;;;18.27;;
1975;SDS011;988;48.016;7.800;2023-01-13T02:14:58;19.25;;;18.15;;
1975;SDS011;988;48.016;7.800;2023-01-13T02:17:37;18.85;;;17.80;;
1975;SDS011;988;48.016;7.800;2023-01-13T02:32:29;20.35;;;18.92;;
1975;SDS011;988;48.016;7.800;2023-01-13T02:35:05;19.17;;;18.08;;
1975;SDS011;988;48.016;7.800;2023-01-13T02:37:39;19.85;;;18.75;;
1975;SDS011;988;48.016;7.800;2023-01-13T02:40:11;19.10;;;17.90;;
1975;SDS011;988;48.016;7.800;2023-01-13T02:42:48;18.95;;;17.92;;
1975;SDS011;988;48.016;7.800;2023-01-13T02:46:07;18.80;;;17.73;;
1975;SDS011;988;48.016;7.800;2023-01-13T02:48:39;19.13;;;17.75;;
1975;SDS011;988;48.016;7.800;2023-01-13T02:51:09;19.63;;;18.25;;
1975;SDS011;988;48.016;7.800;2023-01-13T02:53:43;19.92;;;18.50;;
1975;SDS011;988;48.016;7.800;2023-01-13T02:56:14;17.58;;;16.58;;
1975;SDS011;988;48.016;7.800;2023-01-13T02:58:41;17.55;;;16.45;;
1975;SDS011;988;48.016;7.800;2023-01-13T03:01:09;17.83;;;16.92;;
1975;SDS011;988;48.016;7.800;2023-01-13T03:03:35;20.20;;;18.53;;
1975;SDS011;988;48.016;7.800;2023-01-13T03:14:44;18.60;;;17.40;;
1975;SDS011;988;48.016;7.800;2023-01-13T03:20:04;17.88;;;16.98;;
1975;SDS011;988;48.016;7.800;2023-01-13T03:22:34;18.10;;;17.20;;
1975;SDS011;988;48.016;7.800;2023-01-13T03:25:15;17.88;;;16.77;;
1975;SDS011;988;48.016;7.800;2023-01-13T03:30:27;18.10;;;17.10;;
1975;SDS011;988;48.016;7.800;2023-01-13T03:33:02;18.60;;;17.40;;
1975;SDS011;988;48.016;7.800;2023-01-13T03:35:42;19.15;;;18.15;;
1975;SDS011;988;48.016;7.800;2023-01-13T03:38:12;20.30;;;19.05;;
1975;SDS011;988;48.016;7.800;2023-01-13T03:40:43;19.60;;;18.48;;
1975;SDS011;988;48.016;7.800;2023-01-13T03:43:14;18.38;;;17.38;;
1975;SDS011;988;48.016;7.800;2023-01-13T03:46:03;18.80;;;17.80;;
1975;SDS011;988;48.016;7.800;2023-01-13T03:48:34;17.85;;;16.75;;
1975;SDS011;988;48.016;7.800;2023-01-13T03:51:05;18.25;;;16.98;;
1975;SDS011;988;48.016;7.800;2023-01-13T03:53:37;18.67;;;17.67;;
1975;SDS011;988;48.016;7.800;2023-01-13T03:56:19;17.50;;;16.60;;
1975;SDS011;988;48.016;7.800;2023-01-13T03:58:50;18.60;;;17.55;;
1975;SDS011;988;48.016;7.800;2023-01-13T04:01:19;17.42;;;16.23;;
1975;SDS011;988;48.016;7.800;2023-01-13T04:04:08;18.60;;;17.60;;
1975;SDS011;988;48.016;7.800;2023-01-13T04:09:33;18.20;;;17.20;;
1975;SDS011;988;48.016;7.800;2023-01-13T04:12:27;19.38;;;17.95;;
1975;SDS011;988;48.016;7.800;2023-01-13T04:15:17;18.90;;;17.92;;
1975;SDS011;988;48.016;7.800;2023-01-13T04:17:46;19.38;;;18.38;;
1975;SDS011;988;48.016;7.800;2023-01-13T04:20:12;18.97;;;18.00;;
1975;SDS011;988;48.016;7.800;2023-01-13T04:22:38;18.73;;;17.73;;
1975;SDS011;988;48.016;7.800;2023-01-13T04:25:04;18.70;;;17.80;;
1975;SDS011;988;48.016;7.800;2023-01-13T04:27:30;16.60;;;15.80;;
1975;SDS011;988;48.016;7.800;2023-01-13T04:29:55;17.57;;;16.67;;
1975;SDS011;988;48.016;7.800;2023-01-13T04:32:21;17.57;;;16.77;;
1975;SDS011;988;48.016;7.800;2023-01-13T04:34:46;17.80;;;16.63;;
1975;SDS011;988;48.016;7.800;2023-01-13T04:37:12;17.43;;;16.53;;
1975;SDS011;988;48.016;7.800;2023-01-13T04:39:37;18.27;;;17.30;;
1975;SDS011;988;48.016;7.800;2023-01-13T04:42:03;18.80;;;17.83;;
1975;SDS011;988;48.016;7.800;2023-01-13T04:44:28;18.27;;;17.20;;
1975;SDS011;988;48.016;7.800;2023-01-13T04:46:59;17.15;;;16.25;;
1975;SDS011;988;48.016;7.800;2023-01-13T04:49:26;16.73;;;15.82;;
1975;SDS011;988;48.016;7.800;2023-01-13T04:51:51;17.83;;;16.93;;
1975;SDS011;988;48.016;7.800;2023-01-13T04:54:17;17.67;;;16.77;;
1975;SDS011;988;48.016;7.800;2023-01-13T04:56:43;18.10;;;17.20;;
1975;SDS011;988;48.016;7.800;2023-01-13T04:59:09;17.33;;;16.33;;
1975;SDS011;988;48.016;7.800;2023-01-13T05:01:35;17.98;;;17.08;;
1975;SDS011;988;48.016;7.800;2023-01-13T05:04:01;18.05;;;17.15;;
1975;SDS011;988;48.016;7.800;2023-01-13T05:06:27;18.03;;;17.03;;
1975;SDS011;988;48.016;7.800;2023-01-13T05:08:53;17.35;;;16.35;;
1975;SDS011;988;48.016;7.800;2023-01-13T05:11:19;17.40;;;16.50;;
1975;SDS011;988;48.016;7.800;2023-01-13T05:14:03;19.05;;;17.88;;
1975;SDS011;988;48.016;7.800;2023-01-13T05:16:48;18.80;;;17.80;;
1975;SDS011;988;48.016;7.800;2023-01-13T05:19:28;18.27;;;17.38;;
1975;SDS011;988;48.016;7.800;2023-01-13T05:21:56;18.02;;;17.13;;
1975;SDS011;988;48.016;7.800;2023-01-13T05:24:41;18.30;;;17.40;;
1975;SDS011;988;48.016;7.800;2023-01-13T05:27:26;18.73;;;17.83;;
1975;SDS011;988;48.016;7.800;2023-01-13T05:29:52;17.95;;;17.05;;
1975;SDS011;988;48.016;7.800;2023-01-13T05:32:18;18.35;;;17.40;;
1975;SDS011;988;48.016;7.800;2023-01-13T05:34:44;18.30;;;17.30;;
1975;SDS011;988;48.016;7.800;2023-01-13T05:37:10;18.47;;;17.30;;
1975;SDS011;988;48.016;7.800;2023-01-13T05:39:37;18.35;;;17.25;;
1975;SDS011;988;48.016;7.800;2023-01-13T05:42:21;17.77;;;16.88;;
1975;SDS011;988;48.016;7.800;2023-01-13T05:45:06;17.60;;;16.70;;
1975;SDS011;988;48.016;7.800;2023-01-13T05:47:32;17.30;;;16.45;;
1975;SDS011;988;48.016;7.800;2023-01-13T05:49:59;17.90;;;17.00;;
1975;SDS011;988;48.016;7.800;2023-01-13T05:52:24;18.08;;;17.13;;
1975;SDS011;988;48.016;7.800;2023-01-13T05:54:50;19.53;;;18.53;;
1975;SDS011;988;48.016;7.800;2023-01-13T05:57:16;16.53;;;15.60;;
1975;SDS011;988;48.016;7.800;2023-01-13T05:59:41;19.10;;;18.10;;
1975;SDS011;988;48.016;7.800;2023-01-13T06:02:07;19.40;;;18.20;;
1975;SDS011;988;48.016;7.800;2023-01-13T06:04:32;18.40;;;17.40;;
1975;SDS011;988;48.016;7.800;2023-01-13T06:06:58;17.80;;;16.83;;
1975;SDS011;988;48.016;7.800;2023-01-13T06:09:26;19.37;;;17.87;;
1975;SDS011;988;48.016;7.800;2023-01-13T06:11:51;17.60;;;16.70;;
1975;SDS011;988;48.016;7.800;2023-01-13T06:14:22;19.50;;;18.23;;
1975;SDS011;988;48.016;7.800;2023-01-13T06:16:54;17.50;;;16.60;;
1975;SDS011;988;48.016;7.800;2023-01-13T06:19:19;18.08;;;17.05;;
1975;SDS011;988;48.016;7.800;2023-01-13T06:21:45;18.53;;;17.53;;
1975;SDS011;988;48.016;7.800;2023-01-13T06:24:10;19.03;;;17.93;;
1975;SDS011;988;48.016;7.800;2023-01-13T06:26:37;19.20;;;18.10;;
1975;SDS011;988;48.016;7.800;2023-01-13T06:29:04;18.67;;;17.67;;
1975;SDS011;988;48.016;7.800;2023-01-13T06:31:30;19.70;;;18.50;;
1975;SDS011;988;48.016;7.800;2023-01-13T06:33:59;20.08;;;19.05;;
1975;SDS011;988;48.016;7.800;2023-01-13T06:36:36;23.98;;;22.77;;
1975;SDS011;988;48.016;7.800;2023-01-13T06:39:05;21.67;;;20.58;;
1975;SDS011;988;48.016;7.800;2023-01-13T06:41:36;21.95;;;20.75;;
1975;SDS011;988;48.016;7.800;2023-01-13T06:44:20;22.58;;;21.38;;
1975;SDS011;988;48.016;7.800;2023-01-13T06:46:47;17.75;;;16.85;;
1975;SDS011;988;48.016;7.800;2023-01-13T06:49:13;20.10;;;18.80;;
1975;SDS011;988;48.016;7.800;2023-01-13T06:51:38;20.60;;;19.50;;
1975;SDS011;988;48.016;7.800;2023-01-13T06:54:04;19.90;;;18.80;;
1975;SDS011;988;48.016;7.800;2023-01-13T06:56:29;20.53;;;19.53;;
1975;SDS011;988;48.016;7.800;2023-01-13T06:58:55;20.20;;;19.20;;
1975;SDS011;988;48.016;7.800;2023-01-13T07:01:20;19.23;;;18.23;;
1975;SDS011;988;48.016;7.800;2023-01-13T07:03:46;20.10;;;19.00;;
1975;SDS011;988;48.016;7.800;2023-01-13T07:06:12;21.37;;;20.07;;
1975;SDS011;988;48.016;7.800;2023-01-13T07:08:37;20.23;;;19.23;;
1975;SDS011;988;48.016;7.800;2023-01-13T07:11:03;19.37;;;18.33;;
1975;SDS011;988;48.016;7.800;2023-01-13T07:13:28;20.10;;;19.10;;
1975;SDS011;988;48.016;7.800;2023-01-13T07:16:13;19.15;;;18.20;;
1975;SDS011;988;48.016;7.800;2023-01-13T07:18:38;21.00;;;19.23;;
1975;SDS011;988;48.016;7.800;2023-01-13T07:21:05;19.40;;;18.30;;
1975;SDS011;988;48.016;7.800;2023-01-13T07:23:37;18.38;;;17.48;;
1975;SDS011;988;48.016;7.800;2023-01-13T07:26:04;20.55;;;19.50;;
1975;SDS011;988;48.016;7.800;2023-01-13T07:28:30;23.88;;;22.67;;
1975;SDS011;988;48.016;7.800;2023-01-13T07:30:57;22.42;;;21.33;;
1975;SDS011;988;48.016;7.800;2023-01-13T07:33:22;21.23;;;20.23;;
1975;SDS011;988;48.016;7.800;2023-01-13T07:35:54;20.23;;;19.23;;
1975;SDS011;988;48.016;7.800;2023-01-13T07:38:25;20.83;;;19.83;;
1975;SDS011;988;48.016;7.800;2023-01-13T07:40:51;21.95;;;20.80;;
1975;SDS011;988;48.016;7.800;2023-01-13T07:43:17;20.77;;;19.67;;
1975;SDS011;988;48.016;7.800;2023-01-13T07:46:01;21.50;;;20.25;;
1975;SDS011;988;48.016;7.800;2023-01-13T07:48:28;22.95;;;21.75;;
1975;SDS011;988;48.016;7.800;2023-01-13T07:50:55;22.45;;;21.35;;
1975;SDS011;988;48.016;7.800;2023-01-13T07:53:21;22.10;;;20.90;;
1975;SDS011;988;48.016;7.800;2023-01-13T07:55:49;19.92;;;18.92;;
1975;SDS011;988;48.016;7.800;2023-01-13T07:58:14;21.33;;;20.23;;
1975;SDS011;988;48.016;7.800;2023-01-13T08:00:40;23.17;;;21.53;;
1975;SDS011;988;48.016;7.800;2023-01-13T08:03:05;4.03;;;1.83;;
1975;SDS011;988;48.016;7.800;2023-01-13T08:05:33;1.90;;;1.23;;
1975;SDS011;988;48.016;7.800;2023-01-13T08:07:59;3.60;;;0.70;;
1975;SDS011;988;48.016;7.800;2023-01-13T08:10:25;2.40;;;1.55;;
1975;SDS011;988;48.016;7.800;2023-01-13T08:12:51;1.73;;;0.63;;
1975;SDS011;988;48.016;7.800;2023-01-13T08:15:35;2.95;;;0.60;;
1975;SDS011;988;48.016;7.800;2023-01-13T08:18:00;0.77;;;0.40;;
1975;SDS011;988;48.016;7.800;2023-01-13T08:20:26;0.90;;;0.40;;
1975;SDS011;988;48.016;7.800;2023-01-13T08:22:56;0.60;;;0.60;;
1975;SDS011;988;48.016;7.800;2023-01-13T08:25:22;0.80;;;0.40;;
1975;SDS011;988;48.016;7.800;2023-01-13T08:27:48;1.33;;;0.47;;
1975;SDS011;988;48.016;7.800;2023-01-13T08:30:14;1.77;;;0.60;;
1975;SDS011;988;48.016;7.800;2023-01-13T08:32:45;0.60;;;0.60;;
1975;SDS011;988;48.016;7.800;2023-01-13T08:35:11;0.75;;;0.75;;
1975;SDS011;988;48.016;7.800;2023-01-13T08:37:37;0.60;;;0.50;;
1975;SDS011;988;48.016;7.800;2023-01-13T08:43:15;0.98;;;0.73;;
1975;SDS011;988;48.016;7.800;2023-01-13T08:45:40;3.80;;;1.47;;
1975;SDS011;988;48.016;7.800;2023-01-13T08:48:06;1.20;;;1.20;;
1975;SDS011;988;48.016;7.800;2023-01-13T08:50:32;1.67;;;1.10;;
1975;SDS011;988;48.016;7.800;2023-01-13T08:52:58;1.77;;;1.40;;
1975;SDS011;988;48.016;7.800;2023-01-13T08:55:24;1.20;;;1.20;;
1975;SDS011;988;48.016;7.800;2023-01-13T08:57:49;1.47;;;1.40;;
1975;SDS011;988;48.016;7.800;2023-01-13T09:00:15;2.43;;;2.30;;
1975;SDS011;988;48.016;7.800;2023-01-13T09:02:41;3.97;;;3.77;;
1975;SDS011;988;48.016;7.800;2023-01-13T09:05:07;11.10;;;10.60;;
1975;SDS011;988;48.016;7.800;2023-01-13T09:07:37;12.25;;;11.75;;
1975;SDS011;988;48.016;7.800;2023-01-13T09:10:04;16.25;;;15.45;;
1975;SDS011;988;48.016;7.800;2023-01-13T09:12:31;13.82;;;13.23;;
1975;SDS011;988;48.016;7.800;2023-01-13T09:15:15;15.23;;;14.43;;
1975;SDS011;988;48.016;7.800;2023-01-13T09:17:42;22.27;;;21.10;;
1975;SDS011;988;48.016;7.800;2023-01-13T09:20:10;26.40;;;24.70;;
1975;SDS011;988;48.016;7.800;2023-01-13T09:22:36;29.38;;;27.77;;
1975;SDS011;988;48.016;7.800;2023-01-13T09:25:03;29.83;;;28.13;;
1975;SDS011;988;48.016;7.800;2023-01-13T09:27:29;28.50;;;27.00;;
1975;SDS011;988;48.016;7.800;2023-01-13T09:29:54;26.27;;;24.87;;
1975;SDS011;988;48.016;7.800;2023-01-13T09:32:20;26.30;;;24.90;;
1975;SDS011;988;48.016;7.800;2023-01-13T09:34:45;23.47;;;22.17;;
1975;SDS011;988;48.016;7.800;2023-01-13T09:37:27;22.52;;;21.33;;
1975;SDS011;988;48.016;7.800;2023-01-13T09:39:54;23.45;;;21.98;;
1975;SDS011;988;48.016;7.800;2023-01-13T09:45:32;23.02;;;21.83;;
1975;SDS011;988;48.016;7.800;2023-01-13T09:48:29;28.80;;;27.30;;
1975;SDS011;988;48.016;7.800;2023-01-13T09:53:37;24.20;;;22.83;;
1975;SDS011;988;48.016;7.800;2023-01-13T09:56:08;27.90;;;26.38;;
1975;SDS011;988;48.016;7.800;2023-01-13T09:58:34;27.60;;;26.10;;
1975;SDS011;988;48.016;7.800;2023-01-13T10:03:32;26.08;;;24.67;;
1975;SDS011;988;48.016;7.800;2023-01-13T10:06:01;25.80;;;24.30;;
1975;SDS011;988;48.016;7.800;2023-01-13T10:08:32;24.30;;;22.90;;
1975;SDS011;988;48.016;7.800;2023-01-13T10:11:03;23.83;;;22.43;;
1975;SDS011;988;48.016;7.800;2023-01-13T10:14:23;27.30;;;25.70;;
1975;SDS011;988;48.016;7.800;2023-01-13T10:25:26;30.03;;;28.37;;
1975;SDS011;988;48.016;7.800;2023-01-13T10:28:13;29.00;;;27.40;;
1975;SDS011;988;48.016;7.800;2023-01-13T10:30:43;27.23;;;25.63;;
1975;SDS011;988;48.016;7.800;2023-01-13T10:43:58;25.70;;;24.20;;
1975;SDS011;988;48.016;7.800;2023-01-13T10:46:32;26.67;;;25.07;;
1975;SDS011;988;48.016;7.800;2023-01-13T10:49:00;28.20;;;26.60;;
1975;SDS011;988;48.016;7.800;2023-01-13T10:51:28;25.37;;;23.87;;
1975;SDS011;988;48.016;7.800;2023-01-13T10:56:36;27.00;;;25.40;;
1975;SDS011;988;48.016;7.800;2023-01-13T11:04:30;23.83;;;22.43;;
1975;SDS011;988;48.016;7.800;2023-01-13T11:06:56;23.47;;;22.17;;
1975;SDS011;988;48.016;7.800;2023-01-13T11:09:22;25.37;;;23.97;;
1975;SDS011;988;48.016;7.800;2023-01-13T11:11:50;25.17;;;23.67;;
1975;SDS011;988;48.016;7.800;2023-01-13T11:14:35;24.20;;;22.90;;
1975;SDS011;988;48.016;7.800;2023-01-13T11:19:47;24.23;;;22.80;;
1975;SDS011;988;48.016;7.800;2023-01-13T11:22:31;25.03;;;23.43;;
1975;SDS011;988;48.016;7.800;2023-01-13T11:25:02;25.20;;;23.70;;
1975;SDS011;988;48.016;7.800;2023-01-13T11:27:41;23.00;;;21.60;;
1975;SDS011;988;48.016;7.800;2023-01-13T11:33:03;23.33;;;22.03;;
1975;SDS011;988;48.016;7.800;2023-01-13T11:38:31;22.67;;;21.30;;
1975;SDS011;988;48.016;7.800;2023-01-13T11:41:51;23.93;;;22.03;;
1975;SDS011;988;48.016;7.800;2023-01-13T11:44:04;23.63;;;22.13;;
1975;SDS011;988;48.016;7.800;2023-01-13T11:46:50;23.10;;;21.80;;
1975;SDS011;988;48.016;7.800;2023-01-13T11:49:22;22.47;;;21.17;;
1975;SDS011;988;48.016;7.800;2023-01-13T11:51:56;22.07;;;20.87;;
1975;SDS011;988;48.016;7.800;2023-01-13T11:57:40;23.50;;;22.10;;
1975;SDS011;988;48.016;7.800;2023-01-13T12:02:46;22.53;;;21.13;;
1975;SDS011;988;48.016;7.800;2023-01-13T12:05:28;22.90;;;21.30;;
1975;SDS011;988;48.016;7.800;2023-01-13T12:11:55;21.27;;;19.90;;
1975;SDS011;988;48.016;7.800;2023-01-13T12:14:35;21.37;;;19.93;;
1975;SDS011;988;48.016;7.800;2023-01-13T12:17:10;21.60;;;20.30;;
1975;SDS011;988;48.016;7.800;2023-01-13T12:19:47;21.37;;;20.17;;
1975;SDS011;988;48.016;7.800;2023-01-13T12:22:15;22.37;;;20.97;;
1975;SDS011;988;48.016;7.800;2023-01-13T12:30:39;23.20;;;21.90;;
1975;SDS011;988;48.016;7.800;2023-01-13T12:35:48;26.87;;;25.47;;
1975;SDS011;988;48.016;7.800;2023-01-13T12:41:11;27.60;;;26.10;;
1975;SDS011;988;48.016;7.800;2023-01-13T12:43:53;27.63;;;26.23;;
1975;SDS011;988;48.016;7.800;2023-01-13T12:46:52;26.50;;;24.80;;
1975;SDS011;988;48.016;7.800;2023-01-13T12:49:21;25.47;;;23.63;;
1975;SDS011;988;48.016;7.800;2023-01-13T12:57:21;22.87;;;21.43;;
1975;SDS011;988;48.016;7.800;2023-01-13T13:00:10;22.55;;;21.25;;
1975;SDS011;988;48.016;7.800;2023-01-13T13:02:41;18.10;;;6.03;;
1975;SDS011;988;48.016;7.800;2023-01-13T13:08:02;2.57;;;0.90;;
1975;SDS011;988;48.016;7.800;2023-01-13T13:10:36;2.22;;;0.80;;
1975;SDS011;988;48.016;7.800;2023-01-13T13:13:11;2.20;;;0.63;;
1975;SDS011;988;48.016;7.800;2023-01-13T13:18:49;2.85;;;1.42;;
1975;SDS011;988;48.016;7.800;2023-01-13T13:25:13;4.53;;;1.70;;
1975;SDS011;988;48.016;7.800;2023-01-13T13:36:06;5.85;;;5.45;;
1975;SDS011;988;48.016;7.800;2023-01-13T13:41:49;8.38;;;5.72;;
1975;SDS011;988;48.016;7.800;2023-01-13T13:44:39;7.93;;;7.43;;
1975;SDS011;988;48.016;7.800;2023-01-13T13:47:35;6.50;;;5.85;;
1975;SDS011;988;48.016;7.800;2023-01-13T13:50:04;5.40;;;5.07;;
1975;SDS011;988;48.016;7.800;2023-01-13T13:52:47;6.15;;;3.88;;
1975;SDS011;988;48.016;7.800;2023-01-13T13:55:19;5.38;;;4.82;;
1975;SDS011;988;48.016;7.800;2023-01-13T13:57:47;8.18;;;5.57;;
1975;SDS011;988;48.016;7.800;2023-01-13T14:03:02;6.63;;;6.15;;
1975;SDS011;988;48.016;7.800;2023-01-13T14:05:31;7.72;;;6.95;;
1975;SDS011;988;48.016;7.800;2023-01-13T14:10:28;8.30;;;7.50;;
1975;SDS011;988;48.016;7.800;2023-01-13T14:12:57;8.52;;;8.02;;
1975;SDS011;988;48.016;7.800;2023-01-13T14:15:25;10.35;;;9.50;;
1975;SDS011;988;48.016;7.800;2023-01-13T14:17:55;12.80;;;12.00;;
1975;SDS011;988;48.016;7.800;2023-01-13T14:20:21;14.25;;;13.55;;
1975;SDS011;988;48.016;7.800;2023-01-13T14:22:51;13.35;;;12.65;;
1975;SDS011;988;48.016;7.800;2023-01-13T14:27:57;15.27;;;14.48;;
1975;SDS011;988;48.016;7.800;2023-01-13T14:30:27;16.77;;;15.88;;
1975;SDS011;988;48.016;7.800;2023-01-13T14:32:53;18.87;;;17.77;;
1975;SDS011;988;48.016;7.800;2023-01-13T14:35:19;19.13;;;17.10;;
1975;SDS011;988;48.016;7.800;2023-01-13T14:37:45;18.70;;;17.70;;
1975;SDS011;988;48.016;7.800;2023-01-13T14:42:57;19.08;;;17.83;;
1975;SDS011;988;48.016;7.800;2023-01-13T14:45:24;20.02;;;18.60;;
1975;SDS011;988;48.016;7.800;2023-01-13T14:47:51;19.23;;;18.13;;
1975;SDS011;988;48.016;7.800;2023-01-13T14:50:18;19.10;;;18.10;;
1975;SDS011;988;48.016;7.800;2023-01-13T14:52:51;20.15;;;18.90;;
1975;SDS011;988;48.016;7.800;2023-01-13T14:55:31;20.13;;;18.90;;
1975;SDS011;988;48.016;7.800;2023-01-13T15:00:44;19.48;;;18.30;;
1975;SDS011;988;48.016;7.800;2023-01-13T15:03:12;19.57;;;18.37;;
1975;SDS011;988;48.016;7.800;2023-01-13T15:05:41;18.98;;;17.80;;
1975;SDS011;988;48.016;7.800;2023-01-13T15:11:00;19.23;;;18.02;;
1975;SDS011;988;48.016;7.800;2023-01-13T15:13:30;20.20;;;19.05;;
1975;SDS011;988;48.016;7.800;2023-01-13T15:16:00;18.15;;;16.95;;
1975;SDS011;988;48.016;7.800;2023-01-13T15:18:27;21.92;;;20.58;;
1975;SDS011;988;48.016;7.800;2023-01-13T15:20:53;21.60;;;20.10;;
1975;SDS011;988;48.016;7.800;2023-01-13T15:23:19;19.70;;;18.43;;
1975;SDS011;988;48.016;7.800;2023-01-13T15:25:45;19.80;;;18.50;;
1975;SDS011;988;48.016;7.800;2023-01-13T15:28:22;18.38;;;17.38;;
1975;SDS011;988;48.016;7.800;2023-01-13T15:30:49;17.60;;;16.70;;
1975;SDS011;988;48.016;7.800;2023-01-13T15:33:15;18.55;;;17.55;;
1975;SDS011;988;48.016;7.800;2023-01-13T15:35:50;17.17;;;16.13;;
1975;SDS011;988;48.016;7.800;2023-01-13T15:38:18;18.13;;;15.25;;
1975;SDS011;988;48.016;7.800;2023-01-13T15:40:46;16.00;;;15.20;;
1975;SDS011;988;48.016;7.800;2023-01-13T15:43:16;16.20;;;15.40;;
1975;SDS011;988;48.016;7.800;2023-01-13T15:46:04;17.48;;;16.48;;
1975;SDS011;988;48.016;7.800;2023-01-13T15:48:56;18.83;;;17.20;;
1975;SDS011;988;48.016;7.800;2023-01-13T15:51:24;16.33;;;15.20;;
1975;SDS011;988;48.016;7.800;2023-01-13T15:53:49;16.30;;;15.43;;
1975;SDS011;988;48.016;7.800;2023-01-13T15:56:22;16.30;;;15.30;;
1975;SDS011;988;48.016;7.800;2023-01-13T15:58:49;16.33;;;15.32;;
1975;SDS011;988;48.016;7.800;2023-01-13T16:01:15;15.00;;;14.30;;
1975;SDS011;988;48.016;7.800;2023-01-13T16:03:40;15.57;;;14.60;;
1975;SDS011;988;48.016;7.800;2023-01-13T16:06:14;16.80;;;15.80;;
1975;SDS011;988;48.016;7.800;2023-01-13T16:08:43;15.18;;;14.10;;
1975;SDS011;988;48.016;7.800;2023-01-13T16:11:09;14.70;;;14.00;;
1975;SDS011;988;48.016;7.800;2023-01-13T16:13:36;14.85;;;13.90;;
1975;SDS011;988;48.016;7.800;2023-01-13T16:16:01;16.10;;;14.70;;
1975;SDS011;988;48.016;7.800;2023-01-13T16:18:28;15.40;;;14.30;;
1975;SDS011;988;48.016;7.800;2023-01-13T16:20:53;14.67;;;13.87;;
1975;SDS011;988;48.016;7.800;2023-01-13T16:23:19;14.33;;;13.53;;
1975;SDS011;988;48.016;7.800;2023-01-13T16:25:46;14.32;;;13.63;;
1975;SDS011;988;48.016;7.800;2023-01-13T16:28:19;15.77;;;14.27;;
1975;SDS011;988;48.016;7.800;2023-01-13T16:30:47;14.68;;;13.75;;
1975;SDS011;988;48.016;7.800;2023-01-13T16:33:14;14.68;;;13.68;;
1975;SDS011;988;48.016;7.800;2023-01-13T16:35:39;14.10;;;13.30;;
1975;SDS011;988;48.016;7.800;2023-01-13T16:38:05;16.03;;;14.40;;
1975;SDS011;988;48.016;7.800;2023-01-13T16:40:33;13.82;;;13.13;;
1975;SDS011;988;48.016;7.800;2023-01-13T16:43:00;14.50;;;13.80;;
1975;SDS011;988;48.016;7.800;2023-01-13T16:45:27;14.95;;;14.23;;
1975;SDS011;988;48.016;7.800;2023-01-13T16:47:56;14.75;;;14.05;;
1975;SDS011;988;48.016;7.800;2023-01-13T16:50:39;15.70;;;14.60;;
1975;SDS011;988;48.016;7.800;2023-01-13T16:53:09;16.38;;;15.27;;
1975;SDS011;988;48.016;7.800;2023-01-13T16:55:36;16.40;;;15.30;;
1975;SDS011;988;48.016;7.800;2023-01-13T16:58:02;16.38;;;15.48;;
1975;SDS011;988;48.016;7.800;2023-01-13T17:00:28;16.15;;;14.90;;
1975;SDS011;988;48.016;7.800;2023-01-13T17:02:54;15.40;;;14.30;;
1975;SDS011;988;48.016;7.800;2023-01-13T17:05:22;14.40;;;13.70;;
1975;SDS011;988;48.016;7.800;2023-01-13T17:07:48;15.13;;;14.23;;
1975;SDS011;988;48.016;7.800;2023-01-13T17:10:15;13.77;;;13.07;;
1975;SDS011;988;48.016;7.800;2023-01-13T17:12:42;13.85;;;12.95;;
1975;SDS011;988;48.016;7.800;2023-01-13T17:15:12;11.40;;;10.80;;
1975;SDS011;988;48.016;7.800;2023-01-13T17:17:39;11.57;;;10.98;;
1975;SDS011;988;48.016;7.800;2023-01-13T17:20:08;10.93;;;9.88;;
1975;SDS011;988;48.016;7.800;2023-01-13T17:22:36;10.20;;;9.60;;
1975;SDS011;988;48.016;7.800;2023-01-13T17:25:01;8.07;;;7.73;;
1975;SDS011;988;48.016;7.800;2023-01-13T17:27:27;8.73;;;8.23;;
1975;SDS011;988;48.016;7.800;2023-01-13T17:29:53;8.10;;;7.37;;
1975;SDS011;988;48.016;7.800;2023-01-13T17:32:19;8.77;;;7.97;;
1975;SDS011;988;48.016;7.800;2023-01-13T17:34:46;8.93;;;8.25;;
1975;SDS011;988;48.016;7.800;2023-01-13T17:37:13;10.50;;;9.75;;
1975;SDS011;988;48.016;7.800;2023-01-13T17:39:38;10.77;;;9.53;;
1975;SDS011;988;48.016;7.800;2023-01-13T17:42:08;9.40;;;8.77;;
1975;SDS011;988;48.016;7.800;2023-01-13T17:44:35;9.50;;;8.93;;